sensor_id;sensor_type;location;lat;lon;timestamp;temperature;humidity
63407;SHT31;49543;45.892;10.838;2024-01-16T12:30:56;11.72;58.08
63407;SHT31;49543;45.892;10.838;2024-01-16T12:33:22;11.79;56.15
63407;SHT31;49543;45.892;10.838;2024-01-16T12:35:48;11.90;58.12
63407;SHT31;49543;45.892;10.838;2024-01-16T12:38:14;11.94;56.23
63407;SHT31;49543;45.892;10.838;2024-01-16T12:40:51;11.79;57.01
63407;SHT31;49543;45.892;10.838;2024-01-16T12:43:17;11.50;58.79
63407;SHT31;49543;45.892;10.838;2024-01-16T17:55:56;6.04;74.28
63407;SHT31;49543;45.892;10.838;2024-01-16T17:58:21;6.02;74.44
63407;SHT31;49543;45.892;10.838;2024-01-16T18:00:47;6.01;74.50
63407;SHT31;49543;45.892;10.838;2024-01-16T18:03:13;5.97;74.81
63407;SHT31;49543;45.892;10.838;2024-01-16T18:05:39;5.93;75.91
63407;SHT31;49543;45.892;10.838;2024-01-16T18:08:04;5.90;76.58
63407;SHT31;49543;45.892;10.838;2024-01-16T18:10:32;5.89;76.73
63407;SHT31;49543;45.892;10.838;2024-01-16T18:12:58;5.87;77.23
63407;SHT31;49543;45.892;10.838;2024-01-16T18:15:26;5.84;77.97
63407;SHT31;49543;45.892;10.838;2024-01-16T18:17:53;5.86;77.92
63407;SHT31;49543;45.892;10.838;2024-01-16T18:20:21;5.83;77.71
63407;SHT31;49543;45.892;10.838;2024-01-16T18:22:47;5.75;78.12
63407;SHT31;49543;45.892;10.838;2024-01-16T18:25:21;5.74;78.46
63407;SHT31;49543;45.892;10.838;2024-01-16T18:27:50;5.71;78.22
63407;SHT31;49543;45.892;10.838;2024-01-16T18:30:18;5.67;77.98
63407;SHT31;49543;45.892;10.838;2024-01-16T18:32:47;5.69;77.90
63407;SHT31;49543;45.892;10.838;2024-01-16T18:35:13;5.64;78.14
63407;SHT31;49543;45.892;10.838;2024-01-16T18:37:42;5.63;78.57
63407;SHT31;49543;45.892;10.838;2024-01-16T18:40:09;5.60;78.23
63407;SHT31;49543;45.892;10.838;2024-01-16T18:42:39;5.59;78.51
63407;SHT31;49543;45.892;10.838;2024-01-16T18:45:05;5.56;78.81
63407;SHT31;49543;45.892;10.838;2024-01-16T18:47:32;5.59;79.95
63407;SHT31;49543;45.892;10.838;2024-01-16T18:49:58;5.53;79.15
63407;SHT31;49543;45.892;10.838;2024-01-16T18:52:24;5.52;78.85
63407;SHT31;49543;45.892;10.838;2024-01-16T18:54:49;5.47;79.30
63407;SHT31;49543;45.892;10.838;2024-01-16T18:57:16;5.50;79.36
63407;SHT31;49543;45.892;10.838;2024-01-16T18:59:43;5.44;79.38
63407;SHT31;49543;45.892;10.838;2024-01-16T19:02:11;5.43;79.43
63407;SHT31;49543;45.892;10.838;2024-01-16T19:04:45;5.42;79.57
63407;SHT31;49543;45.892;10.838;2024-01-16T19:07:16;5.36;79.65
63407;SHT31;49543;45.892;10.838;2024-01-16T19:09:49;5.35;79.87
63407;SHT31;49543;45.892;10.838;2024-01-16T19:12:17;5.36;79.66
63407;SHT31;49543;45.892;10.838;2024-01-16T19:14:53;5.36;79.85
63407;SHT31;49543;45.892;10.838;2024-01-16T19:17:29;5.31;79.29
63407;SHT31;49543;45.892;10.838;2024-01-16T19:19:55;5.29;79.23
63407;SHT31;49543;45.892;10.838;2024-01-16T19:22:21;5.25;79.34
63407;SHT31;49543;45.892;10.838;2024-01-16T19:24:52;5.24;79.54
63407;SHT31;49543;45.892;10.838;2024-01-16T19:27:17;5.21;79.81
63407;SHT31;49543;45.892;10.838;2024-01-16T19:29:46;5.21;80.01
63407;SHT31;49543;45.892;10.838;2024-01-16T19:32:12;5.18;80.52
63407;SHT31;49543;45.892;10.838;2024-01-16T19:34:40;5.15;80.56
63407;SHT31;49543;45.892;10.838;2024-01-16T19:37:05;5.14;80.40
63407;SHT31;49543;45.892;10.838;2024-01-16T19:39:33;5.11;80.27
63407;SHT31;49543;45.892;10.838;2024-01-16T19:42:02;5.11;80.27
63407;SHT31;49543;45.892;10.838;2024-01-16T19:44:27;5.08;80.41
63407;SHT31;49543;45.892;10.838;2024-01-16T19:46:53;5.11;80.74
63407;SHT31;49543;45.892;10.838;2024-01-16T19:49:18;5.08;81.05
63407;SHT31;49543;45.892;10.838;2024-01-16T19:51:44;5.09;80.88
63407;SHT31;49543;45.892;10.838;2024-01-16T19:54:10;5.07;81.09
63407;SHT31;49543;45.892;10.838;2024-01-16T19:56:39;5.04;81.19
63407;SHT31;49543;45.892;10.838;2024-01-16T19:59:08;5.04;81.16
63407;SHT31;49543;45.892;10.838;2024-01-16T20:01:36;5.01;81.14
63407;SHT31;49543;45.892;10.838;2024-01-16T20:04:04;4.99;81.19
63407;SHT31;49543;45.892;10.838;2024-01-16T20:06:30;5.02;81.66
63407;SHT31;49543;45.892;10.838;2024-01-16T20:08:56;4.99;81.59
63407;SHT31;49543;45.892;10.838;2024-01-16T20:11:31;4.98;81.58
63407;SHT31;49543;45.892;10.838;2024-01-16T20:13:58;4.94;81.50
63407;SHT31;49543;45.892;10.838;2024-01-16T20:16:27;4.94;81.14
63407;SHT31;49543;45.892;10.838;2024-01-16T20:18:54;4.88;81.15
63407;SHT31;49543;45.892;10.838;2024-01-16T20:21:23;4.89;81.18
63407;SHT31;49543;45.892;10.838;2024-01-16T20:23:52;4.89;81.27
63407;SHT31;49543;45.892;10.838;2024-01-16T20:26:18;4.88;81.04
63407;SHT31;49543;45.892;10.838;2024-01-16T20:28:49;4.88;81.39
63407;SHT31;49543;45.892;10.838;2024-01-16T20:31:17;4.89;81.18
63407;SHT31;49543;45.892;10.838;2024-01-16T20:33:44;4.88;80.88
63407;SHT31;49543;45.892;10.838;2024-01-16T20:36:19;4.84;80.83
63407;SHT31;49543;45.892;10.838;2024-01-16T20:38:45;4.80;80.78
63407;SHT31;49543;45.892;10.838;2024-01-16T20:41:12;4.83;80.75
63407;SHT31;49543;45.892;10.838;2024-01-16T20:43:38;4.77;80.66
63407;SHT31;49543;45.892;10.838;2024-01-16T20:46:07;4.77;80.95
63407;SHT31;49543;45.892;10.838;2024-01-16T20:48:40;4.78;81.36
63407;SHT31;49543;45.892;10.838;2024-01-16T20:51:05;4.78;81.95
63407;SHT31;49543;45.892;10.838;2024-01-16T20:53:31;4.81;81.94
63407;SHT31;49543;45.892;10.838;2024-01-16T20:55:57;4.84;81.89
63407;SHT31;49543;45.892;10.838;2024-01-16T20:58:23;4.84;81.89
63407;SHT31;49543;45.892;10.838;2024-01-16T21:00:49;4.85;81.99
63407;SHT31;49543;45.892;10.838;2024-01-16T21:03:16;4.88;82.12
63407;SHT31;49543;45.892;10.838;2024-01-16T21:05:51;4.89;81.52
63407;SHT31;49543;45.892;10.838;2024-01-16T21:08:20;4.89;81.52
63407;SHT31;49543;45.892;10.838;2024-01-16T21:10:46;4.88;81.52
63407;SHT31;49543;45.892;10.838;2024-01-16T21:13:14;4.91;81.16
63407;SHT31;49543;45.892;10.838;2024-01-16T21:15:40;4.92;80.70
63407;SHT31;49543;45.892;10.838;2024-01-16T21:18:06;4.94;80.84
63407;SHT31;49543;45.892;10.838;2024-01-16T21:20:33;4.94;80.76
63407;SHT31;49543;45.892;10.838;2024-01-16T21:22:59;4.94;80.47
63407;SHT31;49543;45.892;10.838;2024-01-16T21:25:25;4.91;80.50
63407;SHT31;49543;45.892;10.838;2024-01-16T21:27:52;4.87;80.20
63407;SHT31;49543;45.892;10.838;2024-01-16T21:30:17;4.85;79.82
63407;SHT31;49543;45.892;10.838;2024-01-16T21:32:43;4.85;80.23
63407;SHT31;49543;45.892;10.838;2024-01-16T21:35:09;4.87;80.20
63407;SHT31;49543;45.892;10.838;2024-01-16T21:37:38;4.85;80.15
63407;SHT31;49543;45.892;10.838;2024-01-16T21:40:07;4.84;80.20
63407;SHT31;49543;45.892;10.838;2024-01-16T21:42:33;4.84;79.97
63407;SHT31;49543;45.892;10.838;2024-01-16T21:45:03;4.84;79.81
63407;SHT31;49543;45.892;10.838;2024-01-16T21:47:30;4.85;80.33
63407;SHT31;49543;45.892;10.838;2024-01-16T21:49:56;4.85;80.45
63407;SHT31;49543;45.892;10.838;2024-01-16T21:52:21;4.84;80.90
63407;SHT31;49543;45.892;10.838;2024-01-16T21:54:47;4.84;81.05
63407;SHT31;49543;45.892;10.838;2024-01-16T21:57:12;4.81;80.52
63407;SHT31;49543;45.892;10.838;2024-01-16T21:59:38;4.81;80.57
63407;SHT31;49543;45.892;10.838;2024-01-16T22:02:06;4.78;80.57
63407;SHT31;49543;45.892;10.838;2024-01-16T22:04:32;4.74;80.45
63407;SHT31;49543;45.892;10.838;2024-01-16T22:06:57;4.70;80.41
63407;SHT31;49543;45.892;10.838;2024-01-16T22:09:23;4.68;80.58
63407;SHT31;49543;45.892;10.838;2024-01-16T22:11:52;4.67;80.60
63407;SHT31;49543;45.892;10.838;2024-01-16T22:14:18;4.66;80.55
63407;SHT31;49543;45.892;10.838;2024-01-16T22:16:43;4.64;80.43
63407;SHT31;49543;45.892;10.838;2024-01-16T22:19:09;4.66;80.54
63407;SHT31;49543;45.892;10.838;2024-01-16T22:21:34;4.66;80.83
63407;SHT31;49543;45.892;10.838;2024-01-16T22:24:00;4.67;81.16
63407;SHT31;49543;45.892;10.838;2024-01-16T22:26:25;4.67;81.13
63407;SHT31;49543;45.892;10.838;2024-01-16T22:28:51;4.63;81.00
63407;SHT31;49543;45.892;10.838;2024-01-16T22:31:16;4.63;80.88
63407;SHT31;49543;45.892;10.838;2024-01-16T22:33:42;4.66;81.14
63407;SHT31;49543;45.892;10.838;2024-01-16T22:36:07;4.67;81.12
63407;SHT31;49543;45.892;10.838;2024-01-16T22:38:36;4.64;80.85
63407;SHT31;49543;45.892;10.838;2024-01-16T22:41:02;4.70;80.72
63407;SHT31;49543;45.892;10.838;2024-01-16T22:43:29;4.71;81.10
63407;SHT31;49543;45.892;10.838;2024-01-16T22:45:55;4.70;81.07
63407;SHT31;49543;45.892;10.838;2024-01-16T22:48:20;4.68;81.02
63407;SHT31;49543;45.892;10.838;2024-01-16T22:50:46;4.68;81.13
63407;SHT31;49543;45.892;10.838;2024-01-16T22:53:15;4.67;81.15
63407;SHT31;49543;45.892;10.838;2024-01-16T22:55:42;4.68;81.00
63407;SHT31;49543;45.892;10.838;2024-01-16T22:58:08;4.70;80.50
63407;SHT31;49543;45.892;10.838;2024-01-16T23:00:33;4.70;80.66
63407;SHT31;49543;45.892;10.838;2024-01-16T23:03:08;4.66;79.47
63407;SHT31;49543;45.892;10.838;2024-01-16T23:05:38;4.66;79.21
63407;SHT31;49543;45.892;10.838;2024-01-16T23:08:09;4.64;78.48
